sensor_id;sensor_type;location;lat;lon;timestamp;P1;durP1;ratioP1;P2;durP2;ratioP2
37955;SDS011;23776;51.592;7.180;2023-05-15T00:02:08;28.63;;;13.68;;
37955;SDS011;23776;51.592;7.180;2023-05-15T00:04:34;26.45;;;14.93;;
37955;SDS011;23776;51.592;7.180;2023-05-15T00:07:00;31.80;;;15.07;;
37955;SDS011;23776;51.592;7.180;2023-05-15T00:09:25;22.90;;;14.73;;
37955;SDS011;23776;51.592;7.180;2023-05-15T00:11:51;28.98;;;15.82;;
37955;SDS011;23776;51.592;7.180;2023-05-15T00:14:16;24.13;;;15.15;;
37955;SDS011;23776;51.592;7.180;2023-05-15T00:16:42;25.58;;;15.70;;
37955;SDS011;23776;51.592;7.180;2023-05-15T00:19:07;26.10;;;16.42;;
37955;SDS011;23776;51.592;7.180;2023-05-15T00:21:33;29.10;;;16.83;;
37955;SDS011;23776;51.592;7.180;2023-05-15T00:23:59;23.67;;;14.35;;
37955;SDS011;23776;51.592;7.180;2023-05-15T00:26:24;26.40;;;14.55;;
37955;SDS011;23776;51.592;7.180;2023-05-15T00:28:50;24.40;;;14.77;;
37955;SDS011;23776;51.592;7.180;2023-05-15T00:31:16;22.80;;;14.85;;
37955;SDS011;23776;51.592;7.180;2023-05-15T00:33:41;27.65;;;15.02;;
37955;SDS011;23776;51.592;7.180;2023-05-15T00:36:07;23.35;;;13.85;;
37955;SDS011;23776;51.592;7.180;2023-05-15T00:38:33;25.48;;;15.68;;
37955;SDS011;23776;51.592;7.180;2023-05-15T00:41:00;28.50;;;15.05;;
37955;SDS011;23776;51.592;7.180;2023-05-15T00:43:26;26.33;;;15.93;;
37955;SDS011;23776;51.592;7.180;2023-05-15T00:45:52;34.00;;;16.65;;
37955;SDS011;23776;51.592;7.180;2023-05-15T00:48:19;26.00;;;16.30;;
37955;SDS011;23776;51.592;7.180;2023-05-15T00:50:48;26.63;;;15.32;;
37955;SDS011;23776;51.592;7.180;2023-05-15T00:53:15;26.60;;;16.45;;
37955;SDS011;23776;51.592;7.180;2023-05-15T00:55:41;27.33;;;15.90;;
37955;SDS011;23776;51.592;7.180;2023-05-15T00:58:09;29.05;;;15.60;;
37955;SDS011;23776;51.592;7.180;2023-05-15T01:00:35;27.13;;;14.77;;
37955;SDS011;23776;51.592;7.180;2023-05-15T01:03:01;28.10;;;16.70;;
37955;SDS011;23776;51.592;7.180;2023-05-15T01:05:28;27.75;;;16.00;;
37955;SDS011;23776;51.592;7.180;2023-05-15T01:08:36;24.70;;;16.65;;
37955;SDS011;23776;51.592;7.180;2023-05-15T01:10:46;27.50;;;17.13;;
37955;SDS011;23776;51.592;7.180;2023-05-15T01:13:13;29.33;;;16.75;;
37955;SDS011;23776;51.592;7.180;2023-05-15T01:15:40;28.88;;;18.27;;
37955;SDS011;23776;51.592;7.180;2023-05-15T01:18:06;31.50;;;17.10;;
37955;SDS011;23776;51.592;7.180;2023-05-15T01:20:38;30.77;;;17.70;;
37955;SDS011;23776;51.592;7.180;2023-05-15T01:29:08;27.75;;;16.77;;
37955;SDS011;23776;51.592;7.180;2023-05-15T01:34:08;27.98;;;18.15;;
37955;SDS011;23776;51.592;7.180;2023-05-15T01:36:41;32.05;;;18.48;;
37955;SDS011;23776;51.592;7.180;2023-05-15T01:39:12;34.42;;;18.73;;
37955;SDS011;23776;51.592;7.180;2023-05-15T01:41:50;33.03;;;18.40;;
37955;SDS011;23776;51.592;7.180;2023-05-15T01:44:25;34.47;;;17.65;;
37955;SDS011;23776;51.592;7.180;2023-05-15T01:46:54;35.38;;;18.73;;
37955;SDS011;23776;51.592;7.180;2023-05-15T01:49:23;32.65;;;17.52;;
37955;SDS011;23776;51.592;7.180;2023-05-15T01:51:52;34.80;;;18.33;;
37955;SDS011;23776;51.592;7.180;2023-05-15T01:54:23;35.53;;;18.70;;
37955;SDS011;23776;51.592;7.180;2023-05-15T01:56:49;30.88;;;18.85;;
37955;SDS011;23776;51.592;7.180;2023-05-15T01:59:16;38.13;;;19.38;;
37955;SDS011;23776;51.592;7.180;2023-05-15T02:01:43;39.80;;;19.08;;
37955;SDS011;23776;51.592;7.180;2023-05-15T02:04:09;41.63;;;18.85;;
37955;SDS011;23776;51.592;7.180;2023-05-15T02:06:35;34.42;;;18.45;;
37955;SDS011;23776;51.592;7.180;2023-05-15T02:09:02;30.25;;;17.90;;
37955;SDS011;23776;51.592;7.180;2023-05-15T02:11:29;38.03;;;20.05;;
37955;SDS011;23776;51.592;7.180;2023-05-15T02:13:55;37.38;;;20.67;;
37955;SDS011;23776;51.592;7.180;2023-05-15T02:16:21;37.60;;;20.52;;
37955;SDS011;23776;51.592;7.180;2023-05-15T02:18:47;35.78;;;20.42;;
37955;SDS011;23776;51.592;7.180;2023-05-15T02:21:13;38.97;;;21.55;;
37955;SDS011;23776;51.592;7.180;2023-05-15T02:23:39;47.85;;;22.75;;
37955;SDS011;23776;51.592;7.180;2023-05-15T02:26:07;37.80;;;22.15;;
37955;SDS011;23776;51.592;7.180;2023-05-15T02:29:09;36.70;;;20.60;;
37955;SDS011;23776;51.592;7.180;2023-05-15T02:31:53;41.05;;;22.85;;
37955;SDS011;23776;51.592;7.180;2023-05-15T02:34:44;41.10;;;21.67;;
37955;SDS011;23776;51.592;7.180;2023-05-15T02:37:35;45.53;;;23.95;;
37955;SDS011;23776;51.592;7.180;2023-05-15T02:40:04;53.17;;;26.75;;
37955;SDS011;23776;51.592;7.180;2023-05-15T02:42:33;53.55;;;27.02;;
37955;SDS011;23776;51.592;7.180;2023-05-15T02:45:00;60.70;;;29.02;;
37955;SDS011;23776;51.592;7.180;2023-05-15T02:47:29;58.70;;;28.95;;
37955;SDS011;23776;51.592;7.180;2023-05-15T02:49:57;64.90;;;29.98;;
37955;SDS011;23776;51.592;7.180;2023-05-15T02:52:23;66.13;;;29.50;;
37955;SDS011;23776;51.592;7.180;2023-05-15T02:54:49;66.53;;;31.95;;
37955;SDS011;23776;51.592;7.180;2023-05-15T02:57:15;65.30;;;32.15;;
37955;SDS011;23776;51.592;7.180;2023-05-15T02:59:41;72.15;;;32.78;;
37955;SDS011;23776;51.592;7.180;2023-05-15T03:02:06;72.88;;;36.08;;
37955;SDS011;23776;51.592;7.180;2023-05-15T03:04:32;76.55;;;37.08;;
37955;SDS011;23776;51.592;7.180;2023-05-15T03:06:58;69.50;;;35.17;;
37955;SDS011;23776;51.592;7.180;2023-05-15T03:09:24;76.80;;;37.13;;
37955;SDS011;23776;51.592;7.180;2023-05-15T03:11:49;80.00;;;36.08;;
37955;SDS011;23776;51.592;7.180;2023-05-15T03:14:15;75.07;;;36.95;;
37955;SDS011;23776;51.592;7.180;2023-05-15T03:16:41;77.90;;;38.15;;
37955;SDS011;23776;51.592;7.180;2023-05-15T03:19:07;78.10;;;37.13;;
37955;SDS011;23776;51.592;7.180;2023-05-15T03:21:32;86.38;;;39.85;;
37955;SDS011;23776;51.592;7.180;2023-05-15T03:23:59;82.00;;;40.75;;
37955;SDS011;23776;51.592;7.180;2023-05-15T03:26:25;77.20;;;38.80;;
37955;SDS011;23776;51.592;7.180;2023-05-15T03:28:51;79.00;;;38.63;;
37955;SDS011;23776;51.592;7.180;2023-05-15T03:31:17;82.97;;;39.78;;
37955;SDS011;23776;51.592;7.180;2023-05-15T03:33:42;73.53;;;38.15;;
37955;SDS011;23776;51.592;7.180;2023-05-15T03:36:09;77.13;;;39.90;;
37955;SDS011;23776;51.592;7.180;2023-05-15T03:38:35;85.82;;;41.75;;
37955;SDS011;23776;51.592;7.180;2023-05-15T03:41:01;76.95;;;40.25;;
37955;SDS011;23776;51.592;7.180;2023-05-15T03:43:27;84.82;;;40.63;;
37955;SDS011;23776;51.592;7.180;2023-05-15T03:45:52;87.40;;;43.10;;
37955;SDS011;23776;51.592;7.180;2023-05-15T03:48:18;89.30;;;42.38;;
37955;SDS011;23776;51.592;7.180;2023-05-15T03:50:43;85.03;;;42.08;;
37955;SDS011;23776;51.592;7.180;2023-05-15T03:53:09;89.63;;;42.15;;
37955;SDS011;23776;51.592;7.180;2023-05-15T03:55:35;94.10;;;43.88;;
37955;SDS011;23776;51.592;7.180;2023-05-15T03:58:01;93.72;;;45.17;;
37955;SDS011;23776;51.592;7.180;2023-05-15T04:00:27;93.97;;;43.80;;
37955;SDS011;23776;51.592;7.180;2023-05-15T04:02:52;86.50;;;42.70;;
37955;SDS011;23776;51.592;7.180;2023-05-15T04:05:18;87.18;;;40.25;;
37955;SDS011;23776;51.592;7.180;2023-05-15T04:07:45;82.05;;;41.45;;
37955;SDS011;23776;51.592;7.180;2023-05-15T04:10:11;77.72;;;39.38;;
37955;SDS011;23776;51.592;7.180;2023-05-15T04:12:36;77.18;;;39.58;;
37955;SDS011;23776;51.592;7.180;2023-05-15T04:17:47;85.72;;;40.92;;
37955;SDS011;23776;51.592;7.180;2023-05-15T04:20:15;92.63;;;40.65;;
37955;SDS011;23776;51.592;7.180;2023-05-15T04:22:42;83.95;;;41.88;;
37955;SDS011;23776;51.592;7.180;2023-05-15T04:25:09;78.30;;;39.22;;
37955;SDS011;23776;51.592;7.180;2023-05-15T04:27:36;84.03;;;41.50;;
37955;SDS011;23776;51.592;7.180;2023-05-15T04:30:02;90.25;;;41.42;;
37955;SDS011;23776;51.592;7.180;2023-05-15T04:32:29;78.03;;;40.92;;
37955;SDS011;23776;51.592;7.180;2023-05-15T04:34:55;81.50;;;39.22;;
37955;SDS011;23776;51.592;7.180;2023-05-15T04:37:21;82.65;;;38.95;;
37955;SDS011;23776;51.592;7.180;2023-05-15T04:39:46;81.22;;;40.90;;
37955;SDS011;23776;51.592;7.180;2023-05-15T04:42:12;73.72;;;36.25;;
37955;SDS011;23776;51.592;7.180;2023-05-15T04:44:38;85.20;;;42.47;;
37955;SDS011;23776;51.592;7.180;2023-05-15T04:47:04;91.53;;;42.88;;
37955;SDS011;23776;51.592;7.180;2023-05-15T04:49:29;87.68;;;41.67;;
37955;SDS011;23776;51.592;7.180;2023-05-15T04:51:55;90.55;;;42.45;;
37955;SDS011;23776;51.592;7.180;2023-05-15T04:54:20;81.35;;;39.80;;
37955;SDS011;23776;51.592;7.180;2023-05-15T04:56:46;83.40;;;40.40;;
37955;SDS011;23776;51.592;7.180;2023-05-15T04:59:12;92.78;;;46.10;;
37955;SDS011;23776;51.592;7.180;2023-05-15T05:01:38;97.97;;;46.08;;
37955;SDS011;23776;51.592;7.180;2023-05-15T05:04:03;109.15;;;48.67;;
37955;SDS011;23776;51.592;7.180;2023-05-15T05:06:29;111.38;;;49.97;;
37955;SDS011;23776;51.592;7.180;2023-05-15T05:08:55;118.07;;;55.30;;
37955;SDS011;23776;51.592;7.180;2023-05-15T05:11:21;119.95;;;53.15;;
37955;SDS011;23776;51.592;7.180;2023-05-15T05:13:46;110.65;;;52.58;;
37955;SDS011;23776;51.592;7.180;2023-05-15T05:16:12;116.57;;;53.78;;
37955;SDS011;23776;51.592;7.180;2023-05-15T05:18:38;116.68;;;51.50;;
37955;SDS011;23776;51.592;7.180;2023-05-15T05:21:04;115.97;;;50.17;;
37955;SDS011;23776;51.592;7.180;2023-05-15T05:23:30;113.93;;;48.92;;
37955;SDS011;23776;51.592;7.180;2023-05-15T05:25:56;107.35;;;47.55;;
37955;SDS011;23776;51.592;7.180;2023-05-15T05:28:23;101.38;;;46.58;;
37955;SDS011;23776;51.592;7.180;2023-05-15T05:30:49;101.72;;;46.00;;
37955;SDS011;23776;51.592;7.180;2023-05-15T05:33:15;113.60;;;50.25;;
37955;SDS011;23776;51.592;7.180;2023-05-15T05:35:41;107.63;;;47.15;;
37955;SDS011;23776;51.592;7.180;2023-05-15T05:38:06;97.72;;;45.45;;
37955;SDS011;23776;51.592;7.180;2023-05-15T05:40:32;104.22;;;48.70;;
37955;SDS011;23776;51.592;7.180;2023-05-15T05:43:00;104.88;;;48.97;;
37955;SDS011;23776;51.592;7.180;2023-05-15T05:45:27;110.65;;;49.95;;
37955;SDS011;23776;51.592;7.180;2023-05-15T05:47:56;117.95;;;50.63;;
37955;SDS011;23776;51.592;7.180;2023-05-15T05:50:22;120.85;;;52.30;;
37955;SDS011;23776;51.592;7.180;2023-05-15T05:52:48;124.30;;;52.28;;
37955;SDS011;23776;51.592;7.180;2023-05-15T05:55:14;130.07;;;53.20;;
37955;SDS011;23776;51.592;7.180;2023-05-15T05:57:39;130.52;;;53.75;;
37955;SDS011;23776;51.592;7.180;2023-05-15T06:00:05;131.20;;;53.33;;
37955;SDS011;23776;51.592;7.180;2023-05-15T06:02:35;120.43;;;52.05;;
37955;SDS011;23776;51.592;7.180;2023-05-15T06:05:04;113.20;;;49.22;;
37955;SDS011;23776;51.592;7.180;2023-05-15T06:07:30;128.00;;;50.97;;
37955;SDS011;23776;51.592;7.180;2023-05-15T06:09:56;116.75;;;48.97;;
37955;SDS011;23776;51.592;7.180;2023-05-15T06:12:21;104.93;;;47.47;;
37955;SDS011;23776;51.592;7.180;2023-05-15T06:14:47;107.00;;;47.53;;
37955;SDS011;23776;51.592;7.180;2023-05-15T06:17:13;120.65;;;48.50;;
37955;SDS011;23776;51.592;7.180;2023-05-15T06:19:38;106.50;;;47.20;;
37955;SDS011;23776;51.592;7.180;2023-05-15T06:22:04;102.07;;;46.03;;
37955;SDS011;23776;51.592;7.180;2023-05-15T06:24:29;103.32;;;48.28;;
37955;SDS011;23776;51.592;7.180;2023-05-15T06:26:55;116.90;;;50.60;;
37955;SDS011;23776;51.592;7.180;2023-05-15T06:29:21;103.97;;;45.88;;
37955;SDS011;23776;51.592;7.180;2023-05-15T06:31:46;106.03;;;47.05;;
37955;SDS011;23776;51.592;7.180;2023-05-15T06:34:12;107.15;;;47.60;;
37955;SDS011;23776;51.592;7.180;2023-05-15T06:36:37;103.03;;;46.85;;
37955;SDS011;23776;51.592;7.180;2023-05-15T06:39:03;93.97;;;44.28;;
37955;SDS011;23776;51.592;7.180;2023-05-15T06:41:29;100.68;;;45.47;;
37955;SDS011;23776;51.592;7.180;2023-05-15T06:43:56;99.10;;;47.17;;
37955;SDS011;23776;51.592;7.180;2023-05-15T06:46:21;106.70;;;49.05;;
37955;SDS011;23776;51.592;7.180;2023-05-15T06:48:47;106.40;;;47.70;;
37955;SDS011;23776;51.592;7.180;2023-05-15T06:51:12;107.10;;;48.72;;
37955;SDS011;23776;51.592;7.180;2023-05-15T06:53:39;110.28;;;48.20;;
37955;SDS011;23776;51.592;7.180;2023-05-15T06:56:06;108.80;;;48.80;;
37955;SDS011;23776;51.592;7.180;2023-05-15T06:58:31;115.93;;;51.25;;
37955;SDS011;23776;51.592;7.180;2023-05-15T07:00:57;115.75;;;50.95;;
37955;SDS011;23776;51.592;7.180;2023-05-15T07:03:22;114.18;;;49.65;;
37955;SDS011;23776;51.592;7.180;2023-05-15T07:05:48;109.93;;;48.70;;
37955;SDS011;23776;51.592;7.180;2023-05-15T07:08:13;129.75;;;51.42;;
37955;SDS011;23776;51.592;7.180;2023-05-15T07:10:39;126.63;;;53.00;;
37955;SDS011;23776;51.592;7.180;2023-05-15T07:13:04;126.07;;;51.92;;
37955;SDS011;23776;51.592;7.180;2023-05-15T07:15:30;117.65;;;48.08;;
37955;SDS011;23776;51.592;7.180;2023-05-15T07:17:56;117.28;;;49.83;;
37955;SDS011;23776;51.592;7.180;2023-05-15T07:20:21;111.60;;;49.85;;
37955;SDS011;23776;51.592;7.180;2023-05-15T07:22:47;110.68;;;47.92;;
37955;SDS011;23776;51.592;7.180;2023-05-15T07:25:12;107.40;;;47.67;;
37955;SDS011;23776;51.592;7.180;2023-05-15T07:27:38;100.95;;;46.15;;
37955;SDS011;23776;51.592;7.180;2023-05-15T07:30:03;90.13;;;44.17;;
37955;SDS011;23776;51.592;7.180;2023-05-15T07:32:30;73.32;;;37.28;;
37955;SDS011;23776;51.592;7.180;2023-05-15T07:34:56;68.03;;;33.85;;
37955;SDS011;23776;51.592;7.180;2023-05-15T07:37:21;63.53;;;32.30;;
37955;SDS011;23776;51.592;7.180;2023-05-15T07:39:47;60.00;;;30.70;;
37955;SDS011;23776;51.592;7.180;2023-05-15T07:42:13;54.53;;;28.05;;
37955;SDS011;23776;51.592;7.180;2023-05-15T07:44:39;57.28;;;29.05;;
37955;SDS011;23776;51.592;7.180;2023-05-15T07:47:04;57.03;;;27.45;;
37955;SDS011;23776;51.592;7.180;2023-05-15T07:49:30;48.90;;;25.98;;
37955;SDS011;23776;51.592;7.180;2023-05-15T07:51:56;51.08;;;26.75;;
37955;SDS011;23776;51.592;7.180;2023-05-15T07:54:21;46.47;;;26.08;;
37955;SDS011;23776;51.592;7.180;2023-05-15T07:56:47;45.97;;;25.88;;
37955;SDS011;23776;51.592;7.180;2023-05-15T07:59:13;56.80;;;31.40;;
37955;SDS011;23776;51.592;7.180;2023-05-15T08:01:39;55.38;;;29.95;;
37955;SDS011;23776;51.592;7.180;2023-05-15T08:04:06;49.40;;;27.65;;
37955;SDS011;23776;51.592;7.180;2023-05-15T08:06:33;54.35;;;28.70;;
37955;SDS011;23776;51.592;7.180;2023-05-15T08:08:59;47.88;;;28.17;;
37955;SDS011;23776;51.592;7.180;2023-05-15T08:11:24;54.38;;;28.02;;
37955;SDS011;23776;51.592;7.180;2023-05-15T08:13:50;47.10;;;25.77;;
37955;SDS011;23776;51.592;7.180;2023-05-15T08:16:17;45.53;;;24.55;;
37955;SDS011;23776;51.592;7.180;2023-05-15T08:18:42;41.75;;;24.52;;
37955;SDS011;23776;51.592;7.180;2023-05-15T08:21:08;38.42;;;23.13;;
37955;SDS011;23776;51.592;7.180;2023-05-15T08:23:33;38.58;;;21.38;;
37955;SDS011;23776;51.592;7.180;2023-05-15T08:25:59;37.90;;;22.77;;
37955;SDS011;23776;51.592;7.180;2023-05-15T08:28:24;37.95;;;21.65;;
37955;SDS011;23776;51.592;7.180;2023-05-15T08:30:50;31.83;;;19.05;;
37955;SDS011;23776;51.592;7.180;2023-05-15T08:33:15;35.55;;;21.08;;
37955;SDS011;23776;51.592;7.180;2023-05-15T08:35:41;36.47;;;19.70;;
37955;SDS011;23776;51.592;7.180;2023-05-15T08:38:07;37.97;;;21.98;;
37955;SDS011;23776;51.592;7.180;2023-05-15T08:40:32;36.78;;;20.08;;
37955;SDS011;23776;51.592;7.180;2023-05-15T08:43:05;35.28;;;18.45;;
37955;SDS011;23776;51.592;7.180;2023-05-15T08:45:40;34.13;;;19.67;;
37955;SDS011;23776;51.592;7.180;2023-05-15T08:48:11;33.28;;;20.42;;
37955;SDS011;23776;51.592;7.180;2023-05-15T08:50:40;33.42;;;18.77;;
37955;SDS011;23776;51.592;7.180;2023-05-15T08:53:07;34.80;;;19.27;;
37955;SDS011;23776;51.592;7.180;2023-05-15T08:55:33;32.83;;;19.95;;
37955;SDS011;23776;51.592;7.180;2023-05-15T08:57:59;34.15;;;18.63;;
37955;SDS011;23776;51.592;7.180;2023-05-15T09:00:25;26.45;;;17.17;;
37955;SDS011;23776;51.592;7.180;2023-05-15T09:02:52;30.15;;;17.55;;
37955;SDS011;23776;51.592;7.180;2023-05-15T09:05:18;33.33;;;17.95;;
37955;SDS011;23776;51.592;7.180;2023-05-15T09:07:44;30.42;;;18.23;;
37955;SDS011;23776;51.592;7.180;2023-05-15T09:10:11;28.20;;;16.17;;
37955;SDS011;23776;51.592;7.180;2023-05-15T09:12:40;30.05;;;18.00;;
37955;SDS011;23776;51.592;7.180;2023-05-15T09:15:14;27.85;;;16.70;;
37955;SDS011;23776;51.592;7.180;2023-05-15T09:17:46;31.77;;;18.05;;
37955;SDS011;23776;51.592;7.180;2023-05-15T09:20:25;35.30;;;18.52;;
37955;SDS011;23776;51.592;7.180;2023-05-15T09:22:52;27.77;;;17.38;;
37955;SDS011;23776;51.592;7.180;2023-05-15T09:28:31;27.25;;;16.10;;
37955;SDS011;23776;51.592;7.180;2023-05-15T09:30:58;28.15;;;17.17;;
37955;SDS011;23776;51.592;7.180;2023-05-15T09:33:36;31.73;;;18.40;;
37955;SDS011;23776;51.592;7.180;2023-05-15T09:36:03;27.48;;;16.65;;
37955;SDS011;23776;51.592;7.180;2023-05-15T09:38:34;30.05;;;16.45;;
37955;SDS011;23776;51.592;7.180;2023-05-15T09:41:06;24.25;;;15.48;;
37955;SDS011;23776;51.592;7.180;2023-05-15T09:43:32;28.05;;;16.80;;
37955;SDS011;23776;51.592;7.180;2023-05-15T09:45:59;26.25;;;15.18;;
37955;SDS011;23776;51.592;7.180;2023-05-15T09:48:25;28.05;;;15.27;;
37955;SDS011;23776;51.592;7.180;2023-05-15T09:50:52;27.30;;;15.18;;
37955;SDS011;23776;51.592;7.180;2023-05-15T09:53:18;24.95;;;16.38;;
37955;SDS011;23776;51.592;7.180;2023-05-15T09:55:45;24.83;;;15.23;;
37955;SDS011;23776;51.592;7.180;2023-05-15T09:58:14;28.80;;;15.95;;
37955;SDS011;23776;51.592;7.180;2023-05-15T10:00:41;25.38;;;15.60;;
37955;SDS011;23776;51.592;7.180;2023-05-15T10:03:07;27.30;;;15.20;;
37955;SDS011;23776;51.592;7.180;2023-05-15T10:05:34;29.42;;;15.05;;
37955;SDS011;23776;51.592;7.180;2023-05-15T10:08:00;26.13;;;14.57;;
37955;SDS011;23776;51.592;7.180;2023-05-15T10:10:27;24.65;;;14.23;;
37955;SDS011;23776;51.592;7.180;2023-05-15T10:12:54;26.90;;;15.50;;
37955;SDS011;23776;51.592;7.180;2023-05-15T10:15:27;21.42;;;13.23;;
37955;SDS011;23776;51.592;7.180;2023-05-15T10:17:53;24.35;;;15.02;;
37955;SDS011;23776;51.592;7.180;2023-05-15T10:20:20;23.95;;;14.30;;
37955;SDS011;23776;51.592;7.180;2023-05-15T10:22:52;25.85;;;13.43;;
37955;SDS011;23776;51.592;7.180;2023-05-15T10:28:28;25.73;;;14.25;;
37955;SDS011;23776;51.592;7.180;2023-05-15T10:30:55;24.05;;;14.07;;
37955;SDS011;23776;51.592;7.180;2023-05-15T10:33:25;27.58;;;13.75;;
37955;SDS011;23776;51.592;7.180;2023-05-15T10:35:51;20.33;;;12.68;;
37955;SDS011;23776;51.592;7.180;2023-05-15T10:38:18;24.20;;;13.10;;
37955;SDS011;23776;51.592;7.180;2023-05-15T10:40:45;20.67;;;12.57;;
37955;SDS011;23776;51.592;7.180;2023-05-15T10:43:11;21.55;;;11.90;;
37955;SDS011;23776;51.592;7.180;2023-05-15T10:45:38;16.02;;;10.38;;
37955;SDS011;23776;51.592;7.180;2023-05-15T10:48:04;17.95;;;11.55;;
37955;SDS011;23776;51.592;7.180;2023-05-15T10:50:32;19.08;;;11.23;;
37955;SDS011;23776;51.592;7.180;2023-05-15T10:52:58;23.13;;;11.05;;
37955;SDS011;23776;51.592;7.180;2023-05-15T10:55:24;15.05;;;10.00;;
37955;SDS011;23776;51.592;7.180;2023-05-15T10:57:50;18.55;;;10.98;;
37955;SDS011;23776;51.592;7.180;2023-05-15T11:02:47;14.48;;;8.65;;
37955;SDS011;23776;51.592;7.180;2023-05-15T11:05:14;16.85;;;8.43;;
37955;SDS011;23776;51.592;7.180;2023-05-15T11:07:40;16.73;;;9.13;;
37955;SDS011;23776;51.592;7.180;2023-05-15T11:12:54;12.85;;;8.48;;
37955;SDS011;23776;51.592;7.180;2023-05-15T11:15:20;11.45;;;7.80;;
37955;SDS011;23776;51.592;7.180;2023-05-15T11:18:00;13.32;;;7.70;;
37955;SDS011;23776;51.592;7.180;2023-05-15T11:20:33;12.80;;;7.97;;
37955;SDS011;23776;51.592;7.180;2023-05-15T11:23:06;14.30;;;8.80;;
37955;SDS011;23776;51.592;7.180;2023-05-15T11:25:33;14.18;;;8.35;;
37955;SDS011;23776;51.592;7.180;2023-05-15T11:28:00;17.27;;;8.73;;
37955;SDS011;23776;51.592;7.180;2023-05-15T11:30:34;12.52;;;8.02;;
37955;SDS011;23776;51.592;7.180;2023-05-15T11:33:03;14.18;;;6.78;;
37955;SDS011;23776;51.592;7.180;2023-05-15T11:35:45;12.52;;;6.72;;
37955;SDS011;23776;51.592;7.180;2023-05-15T11:38:13;14.38;;;7.57;;
37955;SDS011;23776;51.592;7.180;2023-05-15T11:41:18;15.50;;;8.52;;
37955;SDS011;23776;51.592;7.180;2023-05-15T11:43:43;12.98;;;9.15;;
37955;SDS011;23776;51.592;7.180;2023-05-15T11:46:09;16.40;;;10.15;;
37955;SDS011;23776;51.592;7.180;2023-05-15T11:48:38;16.73;;;9.40;;
37955;SDS011;23776;51.592;7.180;2023-05-15T11:51:10;18.42;;;10.15;;
37955;SDS011;23776;51.592;7.180;2023-05-15T11:53:43;16.63;;;9.00;;
37955;SDS011;23776;51.592;7.180;2023-05-15T11:56:15;16.13;;;6.90;;
37955;SDS011;23776;51.592;7.180;2023-05-15T11:58:47;13.75;;;6.18;;
37955;SDS011;23776;51.592;7.180;2023-05-15T12:01:13;13.27;;;8.32;;
37955;SDS011;23776;51.592;7.180;2023-05-15T12:03:39;14.35;;;7.05;;
37955;SDS011;23776;51.592;7.180;2023-05-15T12:06:05;8.65;;;6.22;;
37955;SDS011;23776;51.592;7.180;2023-05-15T12:08:34;8.70;;;5.50;;
37955;SDS011;23776;51.592;7.180;2023-05-15T12:11:01;9.85;;;5.15;;
37955;SDS011;23776;51.592;7.180;2023-05-15T12:13:28;7.50;;;5.15;;
37955;SDS011;23776;51.592;7.180;2023-05-15T12:15:55;10.57;;;5.53;;
37955;SDS011;23776;51.592;7.180;2023-05-15T12:18:21;10.77;;;5.85;;
37955;SDS011;23776;51.592;7.180;2023-05-15T12:20:47;12.80;;;6.40;;
37955;SDS011;23776;51.592;7.180;2023-05-15T12:23:16;10.52;;;5.95;;
37955;SDS011;23776;51.592;7.180;2023-05-15T12:25:44;13.35;;;6.80;;
37955;SDS011;23776;51.592;7.180;2023-05-15T12:28:11;12.52;;;6.75;;
37955;SDS011;23776;51.592;7.180;2023-05-15T12:30:37;7.60;;;6.05;;
37955;SDS011;23776;51.592;7.180;2023-05-15T12:33:04;9.02;;;4.75;;
37955;SDS011;23776;51.592;7.180;2023-05-15T12:35:50;9.25;;;4.90;;
37955;SDS011;23776;51.592;7.180;2023-05-15T12:38:18;8.73;;;6.28;;
37955;SDS011;23776;51.592;7.180;2023-05-15T12:40:46;8.27;;;4.55;;
37955;SDS011;23776;51.592;7.180;2023-05-15T12:43:17;9.95;;;5.28;;
37955;SDS011;23776;51.592;7.180;2023-05-15T12:45:43;5.45;;;4.68;;
37955;SDS011;23776;51.592;7.180;2023-05-15T12:48:12;6.57;;;4.60;;
37955;SDS011;23776;51.592;7.180;2023-05-15T12:50:39;5.25;;;4.05;;
37955;SDS011;23776;51.592;7.180;2023-05-15T12:53:04;7.07;;;4.95;;
37955;SDS011;23776;51.592;7.180;2023-05-15T12:55:34;6.32;;;4.20;;
37955;SDS011;23776;51.592;7.180;2023-05-15T12:58:04;7.20;;;3.92;;
37955;SDS011;23776;51.592;7.180;2023-05-15T13:00:37;8.57;;;4.40;;
37955;SDS011;23776;51.592;7.180;2023-05-15T13:03:07;7.85;;;6.60;;
37955;SDS011;23776;51.592;7.180;2023-05-15T13:05:34;6.20;;;4.35;;
37955;SDS011;23776;51.592;7.180;2023-05-15T13:08:03;9.20;;;5.88;;
37955;SDS011;23776;51.592;7.180;2023-05-15T13:10:30;8.90;;;5.53;;
37955;SDS011;23776;51.592;7.180;2023-05-15T13:12:57;10.00;;;5.55;;
37955;SDS011;23776;51.592;7.180;2023-05-15T13:18:11;10.63;;;6.05;;
37955;SDS011;23776;51.592;7.180;2023-05-15T13:20:42;7.22;;;4.97;;
37955;SDS011;23776;51.592;7.180;2023-05-15T13:23:10;8.85;;;5.78;;
37955;SDS011;23776;51.592;7.180;2023-05-15T13:25:41;11.43;;;6.85;;
37955;SDS011;23776;51.592;7.180;2023-05-15T13:28:08;10.38;;;6.78;;
37955;SDS011;23776;51.592;7.180;2023-05-15T13:30:37;10.70;;;7.78;;
37955;SDS011;23776;51.592;7.180;2023-05-15T13:33:05;11.10;;;6.25;;
37955;SDS011;23776;51.592;7.180;2023-05-15T13:35:32;8.07;;;6.53;;
37955;SDS011;23776;51.592;7.180;2023-05-15T13:37:57;12.30;;;6.43;;
37955;SDS011;23776;51.592;7.180;2023-05-15T13:40:23;8.52;;;5.88;;
37955;SDS011;23776;51.592;7.180;2023-05-15T13:42:49;10.32;;;7.60;;
37955;SDS011;23776;51.592;7.180;2023-05-15T13:45:15;11.27;;;6.85;;
37955;SDS011;23776;51.592;7.180;2023-05-15T13:47:41;9.30;;;7.88;;
37955;SDS011;23776;51.592;7.180;2023-05-15T13:50:11;11.70;;;7.40;;
37955;SDS011;23776;51.592;7.180;2023-05-15T13:52:38;14.15;;;6.45;;
37955;SDS011;23776;51.592;7.180;2023-05-15T13:55:05;10.45;;;7.63;;
37955;SDS011;23776;51.592;7.180;2023-05-15T13:57:34;14.48;;;6.57;;
37955;SDS011;23776;51.592;7.180;2023-05-15T14:00:05;10.95;;;6.50;;
37955;SDS011;23776;51.592;7.180;2023-05-15T14:02:31;8.15;;;5.28;;
37955;SDS011;23776;51.592;7.180;2023-05-15T14:04:57;13.65;;;7.20;;
37955;SDS011;23776;51.592;7.180;2023-05-15T14:07:23;8.35;;;6.28;;
37955;SDS011;23776;51.592;7.180;2023-05-15T14:09:49;10.55;;;7.18;;
37955;SDS011;23776;51.592;7.180;2023-05-15T14:12:15;9.77;;;7.47;;
37955;SDS011;23776;51.592;7.180;2023-05-15T14:14:41;15.18;;;9.18;;
37955;SDS011;23776;51.592;7.180;2023-05-15T14:17:06;13.75;;;7.90;;
37955;SDS011;23776;51.592;7.180;2023-05-15T14:19:32;16.88;;;10.55;;
37955;SDS011;23776;51.592;7.180;2023-05-15T14:21:58;13.38;;;8.48;;
37955;SDS011;23776;51.592;7.180;2023-05-15T14:24:24;26.35;;;14.70;;
37955;SDS011;23776;51.592;7.180;2023-05-15T14:26:50;22.25;;;14.40;;
37955;SDS011;23776;51.592;7.180;2023-05-15T14:29:15;25.65;;;14.25;;
37955;SDS011;23776;51.592;7.180;2023-05-15T14:31:41;24.88;;;15.20;;
37955;SDS011;23776;51.592;7.180;2023-05-15T14:34:07;18.98;;;12.50;;
37955;SDS011;23776;51.592;7.180;2023-05-15T14:36:32;20.48;;;11.80;;
37955;SDS011;23776;51.592;7.180;2023-05-15T14:38:58;16.80;;;12.50;;
37955;SDS011;23776;51.592;7.180;2023-05-15T14:41:24;19.15;;;11.93;;
37955;SDS011;23776;51.592;7.180;2023-05-15T14:43:49;17.33;;;10.82;;
37955;SDS011;23776;51.592;7.180;2023-05-15T14:46:15;18.60;;;10.18;;
37955;SDS011;23776;51.592;7.180;2023-05-15T14:48:41;14.57;;;9.20;;
37955;SDS011;23776;51.592;7.180;2023-05-15T14:51:06;15.63;;;7.75;;